createdAt,value
2017-11-04T00:00:11.647Z,1013.12
2017-11-04T00:01:11.513Z,1013.09
2017-11-04T00:02:10.960Z,1013.13
2017-11-04T00:03:11.352Z,1013.13
2017-11-04T00:04:10.731Z,1013.12
2017-11-04T00:05:10.558Z,1013.12
2017-11-04T00:06:11.187Z,1013.16
2017-11-04T00:07:10.868Z,1013.14
2017-11-04T00:08:10.251Z,1013.12
2017-11-04T00:09:10.492Z,1013.12
2017-11-04T00:10:11.231Z,1013.12
2017-11-04T00:11:11.060Z,1013.06
2017-11-04T00:12:10.800Z,1013.10
2017-11-04T00:13:11.221Z,1013.05
2017-11-04T00:14:10.898Z,1013.03
2017-11-04T00:15:11.693Z,1013.07
2017-11-04T00:16:11.176Z,1013.05
2017-11-04T00:17:10.399Z,1013.04
2017-11-04T00:18:10.554Z,1013.05
2017-11-04T00:19:10.829Z,1013.03
2017-11-04T00:20:11.466Z,1013.04
2017-11-04T00:21:11.835Z,1013.03
2017-11-04T00:22:11.135Z,1013.02
2017-11-04T00:23:10.599Z,1013.00
2017-11-04T00:24:10.509Z,1013.01
2017-11-04T00:25:10.900Z,1013.02
2017-11-04T00:26:10.664Z,1013.00
2017-11-04T00:27:10.912Z,1013.01
2017-11-04T00:28:11.603Z,1013.01
2017-11-04T00:29:11.066Z,1012.97
2017-11-04T00:30:10.545Z,1012.96
2017-11-04T00:31:11.087Z,1012.95
2017-11-04T00:32:10.198Z,1012.93
2017-11-04T00:33:10.202Z,1012.95
2017-11-04T00:34:10.500Z,1012.94
2017-11-04T00:35:11.065Z,1012.97
2017-11-04T00:36:10.789Z,1012.97
2017-11-04T00:37:11.760Z,1012.91
2017-11-04T00:38:11.384Z,1012.91
2017-11-04T00:39:10.531Z,1012.89
2017-11-04T00:40:10.921Z,1012.91
2017-11-04T00:41:10.324Z,1012.92
2017-11-04T00:42:10.829Z,1012.90
2017-11-04T00:43:10.517Z,1012.84
2017-11-04T00:44:10.344Z,1012.83
2017-11-04T00:45:10.586Z,1012.87
2017-11-04T00:46:10.891Z,1012.85
2017-11-04T00:47:10.245Z,1012.88
2017-11-04T00:48:11.215Z,1012.86
2017-11-04T00:49:11.065Z,1012.83
2017-11-04T00:50:10.677Z,1012.82
2017-11-04T00:51:11.129Z,1012.79
2017-11-04T00:52:10.494Z,1012.81
2017-11-04T00:53:11.164Z,1012.81
2017-11-04T00:54:11.002Z,1012.80
2017-11-04T00:55:10.384Z,1012.82
2017-11-04T00:56:10.894Z,1012.79
2017-11-04T00:57:10.623Z,1012.81
2017-11-04T00:58:11.238Z,1012.72
2017-11-04T00:59:12.209Z,1012.77
2017-11-04T01:00:12.100Z,1012.80
2017-11-04T01:01:11.992Z,1012.79
2017-11-04T01:02:11.804Z,1012.78
2017-11-04T01:03:13.002Z,1012.79
2017-11-04T01:04:12.279Z,1012.78
2017-11-04T01:05:11.316Z,1012.74
2017-11-04T01:06:12.403Z,1012.75
2017-11-04T01:07:12.096Z,1012.68
2017-11-04T01:08:13.540Z,1012.68
2017-11-04T01:09:13.733Z,1012.67
2017-11-04T01:10:13.529Z,1012.68
2017-11-04T01:11:12.979Z,1012.67
2017-11-04T01:12:14.423Z,1012.62
2017-11-04T01:13:12.005Z,1012.62
2017-11-04T01:14:12.626Z,1012.61
2017-11-04T01:15:14.988Z,1012.62
2017-11-04T01:16:12.473Z,1012.63
2017-11-04T01:17:13.361Z,1012.57
2017-11-04T01:18:13.874Z,1012.55
2017-11-04T01:19:14.176Z,1012.59
2017-11-04T01:20:13.920Z,1012.54
2017-11-04T01:21:14.916Z,1012.54
2017-11-04T01:22:15.707Z,1012.52
2017-11-04T01:23:12.869Z,1012.52
2017-11-04T01:24:14.877Z,1012.52
2017-11-04T01:25:13.239Z,1012.51
2017-11-04T01:26:12.440Z,1012.51
2017-11-04T01:27:14.159Z,1012.49
2017-11-04T01:28:12.094Z,1012.45
2017-11-04T01:29:12.749Z,1012.50
2017-11-04T01:30:12.641Z,1012.46
2017-11-04T01:31:15.209Z,1012.47
2017-11-04T01:32:12.285Z,1012.40
2017-11-04T01:33:14.087Z,1012.38
2017-11-04T01:34:12.381Z,1012.37
2017-11-04T01:35:10.184Z,1012.37
2017-11-04T01:36:10.159Z,1012.35
2017-11-04T01:37:10.810Z,1012.35
2017-11-04T01:38:11.197Z,1012.32
2017-11-04T01:39:10.651Z,1012.34
2017-11-04T01:40:10.521Z,1012.30
2017-11-04T01:41:10.598Z,1012.28
2017-11-04T01:42:10.938Z,1012.31
2017-11-04T01:43:10.350Z,1012.26
2017-11-04T01:44:10.197Z,1012.26
2017-11-04T01:45:10.480Z,1012.22
2017-11-04T01:46:11.470Z,1012.21
2017-11-04T01:47:10.634Z,1012.19
2017-11-04T01:48:10.824Z,1012.19
2017-11-04T01:49:11.727Z,1012.18
2017-11-04T01:50:11.629Z,1012.13
2017-11-04T01:51:11.972Z,1012.13
2017-11-04T01:52:12.653Z,1012.12
2017-11-04T01:53:13.719Z,1012.09
2017-11-04T01:54:11.686Z,1012.11
2017-11-04T01:55:12.804Z,1012.08
2017-11-04T01:56:11.428Z,1012.09
2017-11-04T01:57:10.872Z,1012.08
2017-11-04T01:58:11.334Z,1012.08
2017-11-04T01:59:11.549Z,1012.06
2017-11-04T02:00:11.006Z,1012.06
2017-11-04T02:01:10.475Z,1012.06
2017-11-04T02:02:10.774Z,1012.01
2017-11-04T02:03:10.983Z,1012.02
2017-11-04T02:04:11.447Z,1012.02
2017-11-04T02:05:17.126Z,1012.03
2017-11-04T02:06:22.486Z,1011.99
2017-11-04T02:07:10.985Z,1012.01
2017-11-04T02:08:11.208Z,1012.00
2017-11-04T02:09:12.747Z,1011.99
2017-11-04T02:10:12.377Z,1012.01
2017-11-04T02:11:10.582Z,1012.03
2017-11-04T02:12:11.372Z,1011.99
2017-11-04T02:13:10.158Z,1011.97
2017-11-04T02:14:10.303Z,1011.95
2017-11-04T02:15:11.424Z,1011.95
2017-11-04T02:16:10.989Z,1011.92
2017-11-04T02:17:11.575Z,1011.96
2017-11-04T02:18:10.760Z,1011.91
2017-11-04T02:19:10.547Z,1011.92
2017-11-04T02:20:11.120Z,1011.88
2017-11-04T02:21:09.863Z,1011.90
2017-11-04T02:22:11.189Z,1011.88
2017-11-04T02:23:10.181Z,1011.89
2017-11-04T02:24:10.617Z,1011.84
2017-11-04T02:25:10.931Z,1011.86
2017-11-04T02:26:10.913Z,1011.85
2017-11-04T02:27:09.964Z,1011.85
2017-11-04T02:28:09.868Z,1011.78
2017-11-04T02:29:10.637Z,1011.80
2017-11-04T02:30:10.511Z,1011.79
2017-11-04T02:31:10.590Z,1011.78
2017-11-04T02:32:11.199Z,1011.76
2017-11-04T02:33:10.423Z,1011.70
2017-11-04T02:34:10.349Z,1011.65
2017-11-04T02:35:10.379Z,1011.64
2017-11-04T02:36:10.627Z,1011.64
2017-11-04T02:37:10.787Z,1011.62
2017-11-04T02:38:11.072Z,1011.59
2017-11-04T02:39:09.905Z,1011.62
2017-11-04T02:40:10.823Z,1011.60
2017-11-04T02:41:10.681Z,1011.64
2017-11-04T02:42:10.659Z,1011.63
2017-11-04T02:43:10.532Z,1011.61
2017-11-04T02:44:10.753Z,1011.63
2017-11-04T02:45:10.668Z,1011.64
2017-11-04T02:46:11.034Z,1011.60
2017-11-04T02:47:10.420Z,1011.60
2017-11-04T02:48:10.007Z,1011.62
2017-11-04T02:49:09.868Z,1011.57
2017-11-04T02:50:11.130Z,1011.60
2017-11-04T02:51:10.425Z,1011.62
2017-11-04T02:52:10.490Z,1011.61
2017-11-04T02:53:10.437Z,1011.61
2017-11-04T02:54:10.716Z,1011.62
2017-11-04T02:55:10.909Z,1011.63
2017-11-04T02:56:11.347Z,1011.57
2017-11-04T02:57:10.552Z,1011.56
2017-11-04T02:58:10.435Z,1011.54
2017-11-04T02:59:10.843Z,1011.52
2017-11-04T03:00:11.108Z,1011.48
2017-11-04T03:01:10.283Z,1011.48
2017-11-04T03:02:10.706Z,1011.50
2017-11-04T03:03:10.566Z,1011.46
2017-11-04T03:04:10.845Z,1011.45
2017-11-04T03:05:10.263Z,1011.45
2017-11-04T03:06:10.138Z,1011.48
2017-11-04T03:07:10.204Z,1011.45
2017-11-04T03:08:11.420Z,1011.42
2017-11-04T03:09:10.080Z,1011.38
2017-11-04T03:10:09.893Z,1011.39
2017-11-04T03:11:11.151Z,1011.37
2017-11-04T03:12:10.140Z,1011.39
2017-11-04T03:13:10.420Z,1011.39
2017-11-04T03:14:10.228Z,1011.40
2017-11-04T03:15:10.507Z,1011.37
2017-11-04T03:16:10.121Z,1011.35
2017-11-04T03:17:09.916Z,1011.38
2017-11-04T03:18:10.171Z,1011.35
2017-11-04T03:19:11.448Z,1011.35
2017-11-04T03:20:10.508Z,1011.31
2017-11-04T03:21:10.825Z,1011.31
2017-11-04T03:22:11.054Z,1011.27
2017-11-04T03:23:09.889Z,1011.23
2017-11-04T03:24:09.948Z,1011.24
2017-11-04T03:25:10.564Z,1011.25
2017-11-04T03:26:10.449Z,1011.21
2017-11-04T03:27:10.177Z,1011.24
2017-11-04T03:28:10.120Z,1011.24
2017-11-04T03:29:10.479Z,1011.20
2017-11-04T03:30:11.079Z,1011.18
2017-11-04T03:31:10.309Z,1011.23
2017-11-04T03:32:10.324Z,1011.24
2017-11-04T03:33:11.052Z,1011.23
2017-11-04T03:34:10.397Z,1011.25
2017-11-04T03:35:10.766Z,1011.20
2017-11-04T03:36:11.326Z,1011.23
2017-11-04T03:37:10.540Z,1011.19
2017-11-04T03:38:11.110Z,1011.19
2017-11-04T03:39:09.975Z,1011.23
2017-11-04T03:40:10.996Z,1011.25
2017-11-04T03:41:11.554Z,1011.25
2017-11-04T03:42:10.640Z,1011.22
2017-11-04T03:43:10.743Z,1011.23
2017-11-04T03:44:10.897Z,1011.25
2017-11-04T03:45:10.011Z,1011.27
2017-11-04T03:46:10.112Z,1011.26
2017-11-04T03:47:10.681Z,1011.23
2017-11-04T03:48:10.529Z,1011.21
2017-11-04T03:49:10.817Z,1011.23
2017-11-04T03:50:10.715Z,1011.22
2017-11-04T03:51:10.728Z,1011.20
2017-11-04T03:52:11.286Z,1011.21
2017-11-04T03:53:10.097Z,1011.20
2017-11-04T03:54:10.037Z,1011.19
2017-11-04T03:55:10.179Z,1011.16
2017-11-04T03:56:10.515Z,1011.21
2017-11-04T03:57:10.266Z,1011.22
2017-11-04T03:58:10.885Z,1011.21
2017-11-04T03:59:10.994Z,1011.21
2017-11-04T04:00:09.901Z,1011.22
2017-11-04T04:01:10.284Z,1011.19
2017-11-04T04:02:10.030Z,1011.18
2017-11-04T04:03:10.813Z,1011.14
2017-11-04T04:04:11.097Z,1011.17
2017-11-04T04:05:10.156Z,1011.17
2017-11-04T04:06:10.353Z,1011.14
2017-11-04T04:07:10.284Z,1011.17
2017-11-04T04:08:10.655Z,1011.16
2017-11-04T04:09:10.566Z,1011.14
2017-11-04T04:10:10.475Z,1011.08
2017-11-04T04:11:10.802Z,1011.06
2017-11-04T04:12:10.845Z,1011.07
2017-11-04T04:13:11.162Z,1011.07
2017-11-04T04:14:10.880Z,1011.05
2017-11-04T04:15:11.362Z,1011.06
2017-11-04T04:16:10.251Z,1011.07
2017-11-04T04:17:10.182Z,1011.04
2017-11-04T04:18:10.522Z,1011.02
2017-11-04T04:19:10.917Z,1011.02
2017-11-04T04:20:10.716Z,1011.03
2017-11-04T04:21:10.662Z,1010.99
2017-11-04T04:22:10.573Z,1011.02
2017-11-04T04:23:11.201Z,1011.01
2017-11-04T04:24:10.322Z,1010.98
2017-11-04T04:25:11.122Z,1011.05
2017-11-04T04:26:10.448Z,1011.04
2017-11-04T04:27:11.038Z,1011.03
2017-11-04T04:28:09.844Z,1011.06
2017-11-04T04:29:10.895Z,1011.02
2017-11-04T04:30:11.519Z,1011.00
2017-11-04T04:31:10.423Z,1011.07
2017-11-04T04:32:10.689Z,1011.02
2017-11-04T04:33:10.492Z,1011.02
2017-11-04T04:34:10.284Z,1011.03
2017-11-04T04:35:10.538Z,1011.06
2017-11-04T04:36:11.445Z,1011.01
2017-11-04T04:37:10.453Z,1011.03
2017-11-04T04:38:10.690Z,1011.00
2017-11-04T04:39:11.108Z,1010.98
2017-11-04T04:40:10.330Z,1010.97
2017-11-04T04:41:10.072Z,1010.91
2017-11-04T04:42:11.161Z,1010.91
2017-11-04T04:43:10.025Z,1010.92
2017-11-04T04:44:11.143Z,1010.92
2017-11-04T04:45:10.040Z,1010.91
2017-11-04T04:46:10.136Z,1010.87
2017-11-04T04:47:10.259Z,1010.88
2017-11-04T04:48:11.251Z,1010.89
2017-11-04T04:49:10.244Z,1010.87
2017-11-04T04:50:11.169Z,1010.87
2017-11-04T04:51:10.022Z,1010.81
2017-11-04T04:52:10.710Z,1010.81
2017-11-04T04:53:11.232Z,1010.78
2017-11-04T04:54:10.033Z,1010.74
2017-11-04T04:55:10.834Z,1010.75
2017-11-04T04:56:10.562Z,1010.77
2017-11-04T04:57:10.211Z,1010.69
2017-11-04T04:58:10.315Z,1010.68
2017-11-04T04:59:10.808Z,1010.70
2017-11-04T05:00:10.526Z,1010.66
2017-11-04T05:01:10.176Z,1010.62
2017-11-04T05:02:09.834Z,1010.62
2017-11-04T05:03:10.585Z,1010.60
2017-11-04T05:04:10.748Z,1010.57
2017-11-04T05:05:10.950Z,1010.54
2017-11-04T05:06:11.025Z,1010.55
2017-11-04T05:07:10.532Z,1010.54
2017-11-04T05:08:10.629Z,1010.54
2017-11-04T05:09:10.377Z,1010.53
2017-11-04T05:10:10.308Z,1010.52
2017-11-04T05:11:10.065Z,1010.47
2017-11-04T05:12:10.821Z,1010.47
2017-11-04T05:13:10.847Z,1010.43
2017-11-04T05:14:10.607Z,1010.49
2017-11-04T05:15:11.029Z,1010.49
2017-11-04T05:16:09.913Z,1010.49
2017-11-04T05:17:10.479Z,1010.53
2017-11-04T05:18:10.146Z,1010.53
2017-11-04T05:19:10.351Z,1010.55
2017-11-04T05:20:10.152Z,1010.49
2017-11-04T05:21:10.799Z,1010.49
2017-11-04T05:22:10.914Z,1010.49
2017-11-04T05:23:10.582Z,1010.47
2017-11-04T05:24:10.330Z,1010.42
2017-11-04T05:25:10.550Z,1010.44
2017-11-04T05:26:10.710Z,1010.44
2017-11-04T05:27:10.415Z,1010.42
2017-11-04T05:28:10.144Z,1010.40
2017-11-04T05:29:09.788Z,1010.39
2017-11-04T05:30:10.655Z,1010.40
2017-11-04T05:31:10.428Z,1010.34
2017-11-04T05:32:11.089Z,1010.33
2017-11-04T05:33:10.727Z,1010.31
2017-11-04T05:34:10.875Z,1010.30
2017-11-04T05:35:10.979Z,1010.33
2017-11-04T05:36:11.015Z,1010.28
2017-11-04T05:37:11.414Z,1010.25
2017-11-04T05:38:10.184Z,1010.23
2017-11-04T05:39:09.763Z,1010.25
2017-11-04T05:40:10.975Z,1010.25
2017-11-04T05:41:11.063Z,1010.23
2017-11-04T05:42:10.984Z,1010.24
2017-11-04T05:43:10.799Z,1010.25
2017-11-04T05:44:10.803Z,1010.20
2017-11-04T05:45:10.522Z,1010.20
2017-11-04T05:46:10.279Z,1010.19
2017-11-04T05:47:09.960Z,1010.19
2017-11-04T05:48:11.090Z,1010.14
2017-11-04T05:49:10.765Z,1010.10
2017-11-04T05:50:10.952Z,1010.18
2017-11-04T05:51:11.108Z,1010.17
2017-11-04T05:52:10.881Z,1010.15
2017-11-04T05:53:10.579Z,1010.15
2017-11-04T05:54:11.149Z,1010.14
2017-11-04T05:55:09.797Z,1010.11
2017-11-04T05:56:10.879Z,1010.17
2017-11-04T05:57:10.758Z,1010.15
2017-11-04T05:58:10.743Z,1010.15
2017-11-04T05:59:10.094Z,1010.16
2017-11-04T06:00:10.638Z,1010.19
2017-11-04T06:01:10.707Z,1010.16
2017-11-04T06:02:10.452Z,1010.24
2017-11-04T06:03:10.132Z,1010.22
2017-11-04T06:04:10.437Z,1010.23
2017-11-04T06:05:10.870Z,1010.18
2017-11-04T06:06:11.084Z,1010.23
2017-11-04T06:07:11.066Z,1010.21
2017-11-04T06:08:10.411Z,1010.16
2017-11-04T06:09:10.629Z,1010.20
2017-11-04T06:10:10.997Z,1010.21
2017-11-04T06:11:10.733Z,1010.22
2017-11-04T06:12:10.501Z,1010.17
2017-11-04T06:13:10.382Z,1010.14
2017-11-04T06:14:10.131Z,1010.15
2017-11-04T06:15:10.266Z,1010.16
2017-11-04T06:16:10.366Z,1010.12
2017-11-04T06:17:10.581Z,1010.15
2017-11-04T06:18:10.361Z,1010.15
2017-11-04T06:19:09.952Z,1010.19
2017-11-04T06:20:10.442Z,1010.19
2017-11-04T06:21:10.504Z,1010.23
2017-11-04T06:22:10.802Z,1010.24
2017-11-04T06:23:10.825Z,1010.19
2017-11-04T06:24:10.975Z,1010.18
2017-11-04T06:25:11.169Z,1010.20
2017-11-04T06:26:10.757Z,1010.15
2017-11-04T06:27:10.811Z,1010.19
2017-11-04T06:28:10.676Z,1010.20
2017-11-04T06:29:10.842Z,1010.23
2017-11-04T06:30:10.750Z,1010.22
2017-11-04T06:31:10.847Z,1010.16
2017-11-04T06:32:11.216Z,1010.15
2017-11-04T06:33:10.231Z,1010.16
2017-11-04T06:34:10.414Z,1010.15
2017-11-04T06:35:10.084Z,1010.20
2017-11-04T06:36:10.032Z,1010.15
2017-11-04T06:37:11.153Z,1010.16
2017-11-04T06:38:10.326Z,1010.12
2017-11-04T06:39:10.788Z,1010.13
2017-11-04T06:40:11.020Z,1010.11
2017-11-04T06:41:11.306Z,1010.13
2017-11-04T06:42:10.653Z,1010.13
2017-11-04T06:43:10.837Z,1010.10
2017-11-04T06:44:10.409Z,1010.12
2017-11-04T06:45:10.706Z,1010.07
2017-11-04T06:46:10.820Z,1010.06
2017-11-04T06:47:10.605Z,1010.00
2017-11-04T06:48:10.494Z,1010.02
2017-11-04T06:49:10.857Z,1009.98
2017-11-04T06:50:10.291Z,1009.95
2017-11-04T06:51:10.891Z,1009.97
2017-11-04T06:52:11.246Z,1009.96
2017-11-04T06:53:10.192Z,1010.00
2017-11-04T06:54:10.573Z,1009.98
2017-11-04T06:55:10.919Z,1009.95
2017-11-04T06:56:11.329Z,1009.94
2017-11-04T06:57:10.235Z,1009.96
2017-11-04T06:58:10.478Z,1009.95
2017-11-04T06:59:11.133Z,1009.94
2017-11-04T07:00:10.877Z,1009.89
2017-11-04T07:01:11.970Z,1009.90
2017-11-04T07:02:11.545Z,1009.90
2017-11-04T07:03:10.368Z,1009.92
2017-11-04T07:04:11.054Z,1009.93
2017-11-04T07:05:09.968Z,1009.91
2017-11-04T07:06:11.417Z,1009.90
2017-11-04T07:07:10.275Z,1009.91
2017-11-04T07:08:10.093Z,1009.91
2017-11-04T07:09:10.799Z,1009.97
2017-11-04T07:10:10.740Z,1009.91
2017-11-04T07:11:10.630Z,1009.94
2017-11-04T07:12:11.160Z,1009.93
2017-11-04T07:13:10.210Z,1009.87
2017-11-04T07:14:10.590Z,1009.88
2017-11-04T07:15:10.473Z,1009.88
2017-11-04T07:16:10.845Z,1009.91
2017-11-04T07:17:11.221Z,1009.87
2017-11-04T07:18:10.133Z,1009.90
2017-11-04T07:19:10.926Z,1009.83
2017-11-04T07:20:10.721Z,1009.83
2017-11-04T07:21:11.130Z,1009.78
2017-11-04T07:22:10.095Z,1009.76
2017-11-04T07:23:11.382Z,1009.73
2017-11-04T07:24:10.806Z,1009.75
2017-11-04T07:25:11.505Z,1009.76
2017-11-04T07:26:10.401Z,1009.74
2017-11-04T07:27:10.370Z,1009.74
2017-11-04T07:28:10.299Z,1009.74
2017-11-04T07:29:11.027Z,1009.75
2017-11-04T07:30:10.875Z,1009.69
2017-11-04T07:31:10.910Z,1009.65
2017-11-04T07:32:10.844Z,1009.66
2017-11-04T07:33:11.523Z,1009.66
2017-11-04T07:34:11.067Z,1009.66
2017-11-04T07:35:10.107Z,1009.64
2017-11-04T07:36:10.105Z,1009.63
2017-11-04T07:37:10.374Z,1009.63
2017-11-04T07:38:10.068Z,1009.60
2017-11-04T07:39:11.310Z,1009.60
2017-11-04T07:40:10.709Z,1009.63
2017-11-04T07:41:10.934Z,1009.68
2017-11-04T07:42:10.925Z,1009.68
2017-11-04T07:43:10.874Z,1009.65
2017-11-04T07:44:10.255Z,1009.65
2017-11-04T07:45:11.129Z,1009.55
2017-11-04T07:46:10.929Z,1009.60
2017-11-04T07:47:10.904Z,1009.61
2017-11-04T07:48:10.084Z,1009.58
2017-11-04T07:49:10.783Z,1009.58
2017-11-04T07:50:10.387Z,1009.58
2017-11-04T07:51:10.209Z,1009.60
2017-11-04T07:52:10.536Z,1009.56
2017-11-04T07:53:10.981Z,1009.57
2017-11-04T07:54:11.357Z,1009.58
2017-11-04T07:55:10.514Z,1009.50
2017-11-04T07:56:11.016Z,1009.51
2017-11-04T07:57:10.556Z,1009.49
2017-11-04T07:58:11.135Z,1009.49
2017-11-04T07:59:10.919Z,1009.49
2017-11-04T08:00:10.555Z,1009.60
2017-11-04T08:01:11.179Z,1009.56
2017-11-04T08:02:10.228Z,1009.53
2017-11-04T08:03:10.208Z,1009.51
2017-11-04T08:04:10.497Z,1009.49
2017-11-04T08:05:11.575Z,1009.52
2017-11-04T08:06:10.246Z,1009.45
2017-11-04T08:07:10.582Z,1009.45
2017-11-04T08:08:10.439Z,1009.44
2017-11-04T08:09:10.314Z,1009.42
2017-11-04T08:10:10.770Z,1009.40
2017-11-04T08:11:11.257Z,1009.39
2017-11-04T08:12:10.259Z,1009.40
2017-11-04T08:13:10.155Z,1009.36
2017-11-04T08:14:10.500Z,1009.33
2017-11-04T08:15:10.374Z,1009.29
2017-11-04T08:16:10.285Z,1009.29
2017-11-04T08:17:11.604Z,1009.26
2017-11-04T08:18:10.852Z,1009.26
2017-11-04T08:19:10.777Z,1009.25
2017-11-04T08:20:11.223Z,1009.22
2017-11-04T08:21:10.698Z,1009.18
2017-11-04T08:22:11.397Z,1009.19
2017-11-04T08:23:10.296Z,1009.12
2017-11-04T08:24:10.879Z,1009.05
2017-11-04T08:25:10.832Z,1008.98
2017-11-04T08:26:11.257Z,1008.99
2017-11-04T08:27:10.793Z,1009.00
2017-11-04T08:28:11.580Z,1009.03
2017-11-04T08:29:11.107Z,1009.00
2017-11-04T08:30:10.428Z,1009.04
2017-11-04T08:31:10.695Z,1009.03
2017-11-04T08:32:11.069Z,1008.98
2017-11-04T08:33:12.387Z,1008.99
2017-11-04T08:34:10.900Z,1008.98
2017-11-04T08:35:11.397Z,1008.96
2017-11-04T08:36:10.828Z,1008.95
2017-11-04T08:37:10.882Z,1008.94
2017-11-04T08:38:10.215Z,1008.92
2017-11-04T08:39:11.045Z,1008.83
2017-11-04T08:40:11.007Z,1008.79
2017-11-04T08:41:10.557Z,1008.78
2017-11-04T08:42:10.615Z,1008.70
2017-11-04T08:43:11.476Z,1008.72
2017-11-04T08:44:11.371Z,1008.72
2017-11-04T08:45:10.850Z,1008.76
2017-11-04T08:46:11.344Z,1008.76
2017-11-04T08:47:10.746Z,1008.80
2017-11-04T08:48:11.138Z,1008.84
2017-11-04T08:49:11.023Z,1008.82
2017-11-04T08:50:11.616Z,1008.83
2017-11-04T08:51:10.686Z,1008.88
2017-11-04T08:52:10.763Z,1008.86
2017-11-04T08:53:10.748Z,1008.90
2017-11-04T08:54:13.156Z,1008.86
2017-11-04T08:55:10.416Z,1008.90
2017-11-04T08:56:10.943Z,1008.88
2017-11-04T08:57:10.931Z,1008.85
2017-11-04T08:58:11.363Z,1008.87
2017-11-04T08:59:11.062Z,1008.86
2017-11-04T09:00:11.920Z,1008.91
2017-11-04T09:01:11.541Z,1008.88
2017-11-04T09:02:10.542Z,1008.93
2017-11-04T09:03:10.342Z,1008.87
2017-11-04T09:04:11.377Z,1008.89
2017-11-04T09:05:10.872Z,1008.90
2017-11-04T09:06:11.733Z,1008.87
2017-11-04T09:07:10.760Z,1008.92
2017-11-04T09:08:11.238Z,1008.94
2017-11-04T09:09:10.713Z,1008.94
2017-11-04T09:10:11.231Z,1008.90
2017-11-04T09:11:10.789Z,1008.87
2017-11-04T09:12:11.075Z,1008.85
2017-11-04T09:13:11.498Z,1008.83
2017-11-04T09:14:10.666Z,1008.85
2017-11-04T09:15:11.925Z,1008.80
2017-11-04T09:16:10.905Z,1008.79
2017-11-04T09:17:11.937Z,1008.76
2017-11-04T09:18:11.370Z,1008.75
2017-11-04T09:19:11.132Z,1008.67
2017-11-04T09:20:10.511Z,1008.67
2017-11-04T09:21:12.148Z,1008.64
2017-11-04T09:22:10.820Z,1008.62
2017-11-04T09:23:10.344Z,1008.61
2017-11-04T09:24:10.344Z,1008.61
2017-11-04T09:25:10.771Z,1008.61
2017-11-04T09:26:10.863Z,1008.58
2017-11-04T09:27:11.042Z,1008.59
2017-11-04T09:28:10.968Z,1008.57
2017-11-04T09:29:10.592Z,1008.55
2017-11-04T09:30:10.855Z,1008.54
2017-11-04T09:31:12.078Z,1008.55
2017-11-04T09:32:10.426Z,1008.51
2017-11-04T09:33:10.719Z,1008.50
2017-11-04T09:34:10.762Z,1008.49
2017-11-04T09:35:11.239Z,1008.51
2017-11-04T09:36:10.903Z,1008.45
2017-11-04T09:37:11.706Z,1008.44
2017-11-04T09:38:11.718Z,1008.40
2017-11-04T09:39:10.851Z,1008.39
2017-11-04T09:40:10.741Z,1008.36
2017-11-04T09:41:10.933Z,1008.34
2017-11-04T09:42:11.471Z,1008.30
2017-11-04T09:43:11.082Z,1008.33
2017-11-04T09:44:11.915Z,1008.29
2017-11-04T09:45:11.103Z,1008.30
2017-11-04T09:46:10.688Z,1008.27
2017-11-04T09:47:11.278Z,1008.23
2017-11-04T09:48:10.535Z,1008.23
2017-11-04T09:49:10.671Z,1008.22
2017-11-04T09:50:11.308Z,1008.20
2017-11-04T09:51:11.328Z,1008.30
2017-11-04T09:52:10.407Z,1008.28
2017-11-04T09:53:12.013Z,1008.24
2017-11-04T09:54:10.856Z,1008.23
2017-11-04T09:55:13.283Z,1008.21
2017-11-04T09:56:11.111Z,1008.20
2017-11-04T09:57:11.502Z,1008.18
2017-11-04T09:58:11.486Z,1008.15
2017-11-04T09:59:12.050Z,1008.13
2017-11-04T10:00:10.835Z,1008.14
2017-11-04T10:01:11.861Z,1008.16
2017-11-04T10:02:12.587Z,1008.16
2017-11-04T10:03:11.685Z,1008.20
2017-11-04T10:04:11.129Z,1008.18
2017-11-04T10:05:11.631Z,1008.09
2017-11-04T10:06:11.692Z,1008.09
2017-11-04T10:07:11.628Z,1008.10
2017-11-04T10:08:10.743Z,1008.06
2017-11-04T10:09:11.217Z,1008.10
2017-11-04T10:10:10.417Z,1008.08
2017-11-04T10:11:10.449Z,1008.05
2017-11-04T10:12:10.515Z,1008.01
2017-11-04T10:13:11.024Z,1008.03
2017-11-04T10:14:11.106Z,1008.02
2017-11-04T10:15:10.938Z,1007.99
2017-11-04T10:16:12.089Z,1007.97
2017-11-04T10:17:12.167Z,1007.96
2017-11-04T10:18:10.909Z,1007.93
2017-11-04T10:19:11.697Z,1007.93
2017-11-04T10:20:11.177Z,1007.91
2017-11-04T10:21:10.436Z,1007.90
2017-11-04T10:22:10.558Z,1007.88
2017-11-04T10:23:10.871Z,1007.86
2017-11-04T10:24:12.207Z,1007.79
2017-11-04T10:25:11.766Z,1007.79
2017-11-04T10:26:11.302Z,1007.75
2017-11-04T10:27:10.871Z,1007.76
2017-11-04T10:28:16.259Z,1007.76
2017-11-04T10:29:13.078Z,1007.73
2017-11-04T10:30:10.710Z,1007.65
2017-11-04T10:31:10.871Z,1007.62
2017-11-04T10:32:12.523Z,1007.60
2017-11-04T10:33:11.257Z,1007.57
2017-11-04T10:34:12.374Z,1007.50
2017-11-04T10:35:12.142Z,1007.51
2017-11-04T10:36:11.762Z,1007.52
2017-11-04T10:37:11.105Z,1007.48
2017-11-04T10:38:10.591Z,1007.48
2017-11-04T10:39:10.761Z,1007.45
2017-11-04T10:40:11.367Z,1007.46
2017-11-04T10:41:10.993Z,1007.42
2017-11-04T10:42:11.640Z,1007.43
2017-11-04T10:43:11.796Z,1007.40
2017-11-04T10:44:11.130Z,1007.40
2017-11-04T10:45:10.861Z,1007.34
2017-11-04T10:46:11.622Z,1007.34
2017-11-04T10:47:11.305Z,1007.31
2017-11-04T10:48:11.024Z,1007.24
2017-11-04T10:49:11.642Z,1007.21
2017-11-04T10:50:11.653Z,1007.25
2017-11-04T10:51:11.100Z,1007.24
2017-11-04T10:52:11.139Z,1007.22
2017-11-04T10:53:10.244Z,1007.24
2017-11-04T10:54:10.974Z,1007.21
2017-11-04T10:55:11.685Z,1007.20
2017-11-04T10:56:11.023Z,1007.18
2017-11-04T10:57:10.957Z,1007.16
2017-11-04T10:58:11.115Z,1007.05
2017-11-04T10:59:10.815Z,1007.06
2017-11-04T11:00:11.376Z,1007.04
2017-11-04T11:01:10.690Z,1007.03
2017-11-04T11:02:12.244Z,1006.98
2017-11-04T11:03:10.920Z,1006.95
2017-11-04T11:04:11.824Z,1006.77
2017-11-04T11:05:11.542Z,1006.99
2017-11-04T11:06:11.841Z,1007.00
2017-11-04T11:07:11.399Z,1007.02
2017-11-04T11:08:10.799Z,1007.02
2017-11-04T11:09:11.402Z,1007.03
2017-11-04T11:10:11.862Z,1006.99
2017-11-04T11:11:11.460Z,1006.97
2017-11-04T11:12:11.733Z,1006.98
2017-11-04T11:13:11.711Z,1007.00
2017-11-04T11:14:11.011Z,1007.02
2017-11-04T11:15:11.044Z,1007.00
2017-11-04T11:16:10.620Z,1006.96
2017-11-04T11:17:10.319Z,1006.86
2017-11-04T11:18:11.553Z,1006.83
2017-11-04T11:19:11.053Z,1006.83
2017-11-04T11:20:10.254Z,1006.87
2017-11-04T11:21:10.362Z,1006.88
2017-11-04T11:22:10.627Z,1006.86
2017-11-04T11:23:11.995Z,1006.87
2017-11-04T11:24:12.607Z,1006.90
2017-11-04T11:25:11.362Z,1006.85
2017-11-04T11:26:10.517Z,1006.87
2017-11-04T11:27:12.045Z,1006.89
2017-11-04T11:28:10.538Z,1006.86
2017-11-04T11:29:11.141Z,1006.79
2017-11-04T11:30:11.165Z,1006.81
2017-11-04T11:31:10.656Z,1006.77
2017-11-04T11:32:11.095Z,1006.81
2017-11-04T11:33:10.521Z,1006.78
2017-11-04T11:34:11.071Z,1006.80
2017-11-04T11:35:11.795Z,1006.80
2017-11-04T11:36:10.844Z,1006.76
2017-11-04T11:37:11.278Z,1006.75
2017-11-04T11:38:10.590Z,1006.73
2017-11-04T11:39:10.960Z,1006.73
2017-11-04T11:40:11.945Z,1006.75
2017-11-04T11:41:12.160Z,1006.84
2017-11-04T11:42:10.757Z,1006.86
2017-11-04T11:43:10.879Z,1006.83
2017-11-04T11:44:11.165Z,1006.79
2017-11-04T11:45:10.971Z,1006.78
2017-11-04T11:46:11.592Z,1006.80
2017-11-04T11:47:10.738Z,1006.79
2017-11-04T11:48:11.273Z,1006.81
2017-11-04T11:49:10.839Z,1006.83
2017-11-04T11:50:11.380Z,1006.80
2017-11-04T11:51:10.981Z,1006.80
2017-11-04T11:52:13.001Z,1006.81
2017-11-04T11:53:12.099Z,1006.78
2017-11-04T11:54:12.346Z,1006.73
2017-11-04T11:55:11.134Z,1006.75
2017-11-04T11:56:10.968Z,1006.69
2017-11-04T11:57:10.770Z,1006.64
2017-11-04T11:58:11.860Z,1006.60
2017-11-04T11:59:10.939Z,1006.61
2017-11-04T12:00:10.773Z,1006.68
2017-11-04T12:01:10.724Z,1006.63
2017-11-04T12:02:10.718Z,1006.64
2017-11-04T12:03:10.856Z,1006.64
2017-11-04T12:04:11.730Z,1006.67
2017-11-04T12:05:11.498Z,1006.74